.
WxDataArchive / Data Records for 2006-11-03
2006-11-02 November 2006 2006-11-04

Data Records for Friday, 03 November 2006

Time	Temp	Chill	HIndex	Humid	Dewpt	 Wind 	HiWind	WindDir	Rain 	Barom 
-----	----	-----	------	-----	-----	------	------	-------	-----	----- 
00:00	26.0	26.0	26.0	61	14.4	1	3	248	0.00	30.351 
00:05	26.0	26.0	26.0	61	14.4	0	3	248	0.00	30.351 
00:10	25.8	25.8	25.8	61	14.2	0	2	248	0.00	30.351 
00:15	25.8	25.8	25.8	61	14.2	0	2	248	0.00	30.352 
00:20	25.8	25.8	25.8	61	14.2	1	3	248	0.00	30.352 
00:25	25.8	25.8	25.8	61	14.2	1	3	248	0.00	30.352 
00:30	25.8	25.8	25.8	61	14.2	1	3	248	0.00	30.360 
00:35	25.8	25.8	25.8	61	14.2	1	3	248	0.00	30.360 
00:40	25.8	25.8	25.8	61	14.2	1	3	248	0.00	30.360 
00:45	25.7	25.7	25.7	61	14.1	0	2	248	0.00	30.362 
00:50	25.7	25.7	25.7	61	14.1	1	3	248	0.00	30.362 
00:55	25.7	25.7	25.7	61	14.1	1	3	248	0.00	30.362 
01:00	25.7	25.7	25.7	61	14.1	0	3	248	0.00	30.360 
01:05	25.7	25.7	25.7	62	14.5	0	2	248	0.00	30.360 
01:10	25.6	25.6	25.6	62	14.4	0	2	248	0.00	30.360 
01:15	25.6	25.6	25.6	62	14.4	0	2	248	0.00	30.363 
01:20	25.6	25.6	25.6	62	14.4	0	2	248	0.00	30.363 
01:25	25.4	25.4	25.4	62	14.2	0	2	248	0.00	30.363 
01:30	25.4	25.4	25.4	62	14.2	0	2	248	0.00	30.362 
01:35	25.3	25.3	25.3	63	14.5	0	1	248	0.00	30.362 
01:40	25.3	25.3	25.3	63	14.5	0	2	248	0.00	30.362 
01:45	25.1	25.1	25.1	63	14.3	0	1	248	0.00	30.362 
01:50	25.1	25.1	25.1	64	14.7	0	2	248	0.00	30.362 
01:55	25.1	25.1	25.1	63	14.3	1	4	248	0.00	30.362 
02:00	25.1	25.1	25.1	64	14.7	0	3	248	0.00	30.364 
02:05	25.1	25.1	25.1	64	14.7	0	2	248	0.00	30.364 
02:10	25.1	25.1	25.1	64	14.7	0	3	248	0.00	30.364 
02:15	25.1	25.1	25.1	64	14.7	1	2	248	0.00	30.368 
02:20	25.1	25.1	25.1	64	14.7	1	4	248	0.00	30.368 
02:25	25.1	25.1	25.1	64	14.7	1	2	248	0.00	30.368 
02:30	25.1	25.1	25.1	64	14.7	1	4	248	0.00	30.371 
02:35	25.1	25.1	25.1	64	14.7	0	2	248	0.00	30.371 
02:40	25.1	25.1	25.1	64	14.7	1	3	248	0.00	30.371 
02:45	25.1	25.1	25.1	65	15.0	1	3	248	0.00	30.376 
02:50	25.1	25.1	25.1	65	15.0	1	3	248	0.00	30.376 
02:55	25.0	25.0	25.0	65	14.9	1	3	248	0.00	30.376 
03:00	25.0	25.0	25.0	65	14.9	2	4	248	0.00	30.374 
03:05	25.0	25.0	25.0	65	14.9	1	6	248	0.00	30.374 
03:10	25.0	25.0	25.0	65	14.9	1	3	248	0.00	30.374 
03:15	25.0	25.0	25.0	64	14.6	1	4	248	0.00	30.381 
03:20	24.8	24.8	24.8	64	14.4	1	2	248	0.00	30.381 
03:25	24.8	24.8	24.8	65	14.7	1	4	248	0.00	30.381 
03:30	24.8	24.8	24.8	65	14.7	1	3	248	0.00	30.383 
03:35	24.8	24.8	24.8	64	14.4	0	2	248	0.00	30.383 
03:40	24.7	24.7	24.7	65	14.6	0	3	248	0.00	30.383 
03:45	24.7	24.7	24.7	65	14.6	0	3	248	0.00	30.382 
03:50	24.5	24.5	24.5	65	14.4	1	3	248	0.00	30.382 
03:55	24.4	24.4	24.4	65	14.3	0	2	248	0.00	30.382 
04:00	24.2	24.2	24.2	66	14.5	0	1	248	0.00	30.383 
04:05	24.1	24.1	24.1	66	14.4	0	2	248	0.00	30.383 
04:10	24.1	24.1	24.1	66	14.4	0	2	248	0.00	30.383 
04:15	23.9	23.9	23.9	66	14.2	0	2	248	0.00	30.384 
04:20	23.9	23.9	23.9	66	14.2	0	2	248	0.00	30.384 
04:25	23.9	23.9	23.9	67	14.6	0	1	248	0.00	30.384 
04:30	23.8	23.8	23.8	67	14.5	0	2	248	0.00	30.386 
04:35	23.8	23.8	23.8	67	14.5	0	2	248	0.00	30.386 
04:40	23.6	23.6	23.6	67	14.3	0	2	248	0.00	30.386 
04:45	23.6	23.6	23.6	67	14.3	0	2	248	0.00	30.386 
04:50	23.5	23.5	23.5	68	14.5	0	1	248	0.00	30.386 
04:55	23.3	23.3	23.3	68	14.3	0	1	248	0.00	30.386 
05:00	23.2	23.2	23.2	68	14.2	0	1	248	0.00	30.387 
05:05	23.2	23.2	23.2	68	14.2	0	1	248	0.00	30.387 
05:10	23.0	23.0	23.0	68	14.0	0	1	248	0.00	30.387 
05:15	23.2	23.2	23.2	68	14.2	1	3	248	0.00	30.389 
05:20	23.2	23.2	23.2	68	14.2	0	1	225	0.00	30.389 
05:25	23.3	23.3	23.3	68	14.3	0	1	225	0.00	30.389 
05:30	23.2	23.2	23.2	68	14.2	0	1	225	0.00	30.391 
05:35	23.2	23.2	23.2	68	14.2	0	1	225	0.00	30.391 
05:40	23.2	23.2	23.2	68	14.2	0	2	225	0.00	30.391 
05:45	23.3	23.3	23.3	68	14.3	1	2	225	0.00	30.392 
05:50	23.5	23.5	23.5	68	14.5	0	2	248	0.00	30.392 
05:55	23.5	23.5	23.5	68	14.5	0	3	248	0.00	30.392 
06:00	23.5	23.5	23.5	68	14.5	0	2	248	0.00	30.395 
06:05	23.3	23.3	23.3	68	14.3	0	2	248	0.00	30.395 
06:10	23.3	23.3	23.3	69	14.7	0	1	248	0.00	30.395 
06:15	23.0	23.0	23.0	69	14.4	0	1	248	0.00	30.398 
06:20	22.9	22.9	22.9	69	14.3	0	1	248	0.00	30.398 
06:25	22.7	22.7	22.7	70	14.4	0	1	248	0.00	30.398 
06:30	22.7	22.7	22.7	70	14.4	0	1	248	0.00	30.400 
06:35	22.5	22.5	22.5	71	14.5	0	0	---	0.00	30.400 
06:40	22.5	22.5	22.5	71	14.5	0	0	---	0.00	30.400 
06:45	22.4	22.4	22.4	71	14.4	0	1	248	0.00	30.403 
06:50	22.4	22.4	22.4	72	14.8	0	1	248	0.00	30.403 
06:55	22.4	22.4	22.4	73	15.1	0	1	248	0.00	30.403 
07:00	22.4	22.4	22.4	73	15.1	0	0	---	0.00	30.405 
07:05	22.4	22.4	22.4	73	15.1	0	1	248	0.00	30.405 
07:10	22.5	22.5	22.5	73	15.2	0	2	248	0.00	30.405 
07:15	22.5	22.5	22.5	73	15.2	0	1	248	0.00	30.408 
07:20	22.9	22.9	22.9	72	15.2	1	2	248	0.00	30.408 
07:25	23.2	23.2	23.2	72	15.5	1	3	248	0.00	30.408 
07:30	23.3	23.3	23.3	71	15.3	0	2	248	0.00	30.414 
07:35	23.5	23.5	23.5	70	15.2	1	3	248	0.00	30.414 
07:40	23.6	23.6	23.6	69	14.9	1	3	248	0.00	30.414 
07:45	23.9	23.9	23.9	69	15.2	1	4	248	0.00	30.420 
07:50	24.1	24.1	24.1	68	15.1	1	3	248	0.00	30.420 
07:55	24.2	24.2	24.2	67	14.8	1	3	248	0.00	30.420 
08:00	24.7	24.7	24.7	66	15.0	1	3	248	0.00	30.421 
08:05	25.0	25.0	25.0	65	14.9	1	1	248	0.00	30.421 
08:10	25.6	25.6	25.6	63	14.8	1	2	248	0.00	30.421 
08:15	25.8	25.8	25.8	62	14.6	1	4	248	0.00	30.427 
08:20	26.3	26.3	26.3	62	15.1	1	3	248	0.00	30.427 
08:25	26.6	26.6	26.6	62	15.4	1	4	248	0.00	30.427 
08:30	27.0	27.0	27.0	60	15.0	1	2	248	0.00	30.430 
08:35	27.3	27.3	27.3	59	14.9	1	3	248	0.00	30.430 
08:40	27.8	27.8	27.8	58	15.0	1	3	248	0.00	30.430 
08:45	28.1	28.1	28.1	59	15.6	1	2	248	0.00	30.433 
08:50	28.4	28.4	28.4	57	15.1	2	4	248	0.00	30.433 
08:55	28.7	28.7	28.7	57	15.4	2	6	248	0.00	30.433 
09:00	29.1	29.1	29.1	55	15.0	2	6	248	0.00	30.439 
09:05	29.5	29.5	29.5	54	14.9	2	5	248	0.00	30.439 
09:10	30.0	30.0	30.0	53	15.0	2	7	225	0.00	30.439 
09:15	30.6	30.6	30.6	53	15.5	1	3	270	0.00	30.433 
09:20	31.0	31.0	31.0	52	15.5	1	3	248	0.00	30.433 
09:25	31.5	31.5	31.5	52	15.9	1	3	248	0.00	30.433 
09:30	31.8	31.8	31.8	50	15.3	1	4	248	0.00	30.433 
09:35	32.1	32.1	32.1	51	16.0	2	3	248	0.00	30.433 
09:40	32.2	32.2	32.2	50	15.7	3	7	270	0.00	30.433 
09:45	32.1	28.2	32.1	49	15.1	4	11	270	0.00	30.434 
09:50	32.2	32.2	32.2	49	15.2	3	9	270	0.00	30.434 
09:55	32.2	28.3	32.2	49	15.2	4	9	270	0.00	30.434 
10:00	32.7	32.7	32.7	49	15.7	3	6	248	0.00	30.432 
10:05	33.1	33.1	33.1	49	16.0	2	11	248	0.00	30.432 
10:10	33.4	33.4	33.4	48	15.8	3	6	248	0.00	30.432 
10:15	33.5	33.5	33.5	49	16.4	3	7	248	0.00	30.428 
10:20	33.7	33.7	33.7	50	17.1	2	7	270	0.00	30.428 
10:25	34.1	34.1	34.1	46	15.5	3	7	248	0.00	30.428 
10:30	34.1	34.1	34.1	46	15.5	3	10	270	0.00	30.428 
10:35	34.1	34.1	34.1	46	15.5	2	7	270	0.00	30.428 
10:40	34.6	34.6	34.6	46	16.0	2	5	270	0.00	30.428 
10:45	34.3	34.3	34.3	45	15.2	3	10	270	0.00	30.427 
10:50	34.4	34.4	34.4	46	15.8	3	7	270	0.00	30.427 
10:55	34.6	31.1	34.6	44	15.0	4	9	270	0.00	30.427 
11:00	34.7	34.7	34.7	46	16.1	3	9	270	0.00	30.432 
11:05	34.7	31.2	34.7	46	16.1	4	10	248	0.00	30.432 
11:10	35.0	35.0	35.0	44	15.3	3	11	270	0.00	30.432 
11:15	34.7	31.2	34.7	44	15.0	4	10	270	0.00	30.434 
11:20	35.2	35.2	35.2	47	17.0	3	6	270	0.00	30.434 
11:25	35.2	35.2	35.2	43	15.0	3	6	270	0.00	30.434 
11:30	35.3	35.3	35.3	45	16.1	3	10	270	0.00	30.436 
11:35	35.5	35.5	35.5	44	15.8	3	9	270	0.00	30.436 
11:40	35.9	35.9	35.9	46	17.2	3	10	270	0.00	30.436 
11:45	35.8	35.8	35.8	45	16.6	2	5	248	0.00	30.427 
11:50	35.8	35.8	35.8	45	16.6	3	12	270	0.00	30.427 
11:55	35.3	31.0	35.3	43	15.1	5	13	248	0.00	30.427 
12:00	35.9	35.9	35.9	45	16.7	2	7	270	0.00	30.421 
12:05	36.2	36.2	36.2	42	15.3	3	8	270	0.00	30.421 
12:10	36.2	36.2	36.2	45	16.9	3	10	248	0.00	30.421 
12:15	36.5	36.5	36.5	41	15.1	3	6	270	0.00	30.420 
12:20	36.5	36.5	36.5	42	15.6	3	10	270	0.00	30.420 
12:25	36.8	36.8	36.8	43	16.4	2	7	270	0.00	30.420 
12:30	36.6	36.6	36.6	42	15.7	3	6	270	0.00	30.423 
12:35	36.9	36.9	36.9	43	16.5	3	11	270	0.00	30.423 
12:40	37.0	37.0	37.0	41	15.5	3	9	270	0.00	30.423 
12:45	36.8	36.8	36.8	40	14.8	3	6	315	0.00	30.417 
12:50	36.9	36.9	36.9	42	16.0	3	7	270	0.00	30.417 
12:55	37.2	37.2	37.2	44	17.3	2	5	248	0.00	30.417 
13:00	37.3	37.3	37.3	40	15.2	3	10	270	0.00	30.414 
13:05	37.5	37.5	37.5	41	16.0	3	9	270	0.00	30.414 
13:10	37.3	37.3	37.3	41	15.8	3	7	270	0.00	30.414 
13:15	37.8	37.8	37.8	42	16.8	3	5	270	0.00	30.409 
13:20	37.8	37.8	37.8	40	15.7	2	6	270	0.00	30.409 
13:25	37.3	37.3	37.3	41	15.8	2	5	315	0.00	30.409 
13:30	37.8	37.8	37.8	39	15.1	2	6	270	0.00	30.410 
13:35	38.3	38.3	38.3	41	16.7	2	9	248	0.00	30.410 
13:40	38.3	38.3	38.3	39	15.5	3	7	270	0.00	30.410 
13:45	38.3	38.3	38.3	38	14.9	3	9	270	0.00	30.407 
13:50	38.0	35.0	38.0	36	13.4	4	9	248	0.00	30.407 
13:55	37.8	37.8	37.8	39	15.1	2	7	315	0.00	30.407 
14:00	37.9	37.9	37.9	40	15.8	2	4	270	0.00	30.397 
14:05	38.2	38.2	38.2	38	14.9	3	11	270	0.00	30.397 
14:10	38.5	38.5	38.5	37	14.5	2	11	270	0.00	30.397 
14:15	38.3	38.3	38.3	38	14.9	2	6	270	0.00	30.396 
14:20	38.5	38.5	38.5	36	13.9	3	6	270	0.00	30.396 
14:25	38.2	38.2	38.2	36	13.6	1	4	315	0.00	30.396 
14:30	38.3	38.3	38.3	36	13.7	2	4	315	0.00	30.394 
14:35	38.3	38.3	38.3	37	14.3	3	6	270	0.00	30.394 
14:40	38.5	38.5	38.5	37	14.5	2	4	270	0.00	30.394 
14:45	38.6	38.6	38.6	36	14.0	2	6	270	0.00	30.393 
14:50	38.9	38.9	38.9	35	13.6	2	5	270	0.00	30.393 
14:55	38.9	38.9	38.9	35	13.6	2	11	315	0.00	30.393 
15:00	38.5	38.5	38.5	36	13.9	2	3	315	0.00	30.394 
15:05	39.1	39.1	39.1	36	14.4	1	5	248	0.00	30.394 
15:10	38.8	38.8	38.8	34	12.9	2	6	315	0.00	30.394 
15:15	38.5	38.5	38.5	36	13.9	2	4	270	0.00	30.395 
15:20	38.2	38.2	38.2	37	14.2	1	4	338	0.00	30.395 
15:25	38.3	38.3	38.3	37	14.3	2	5	270	0.00	30.395 
15:30	37.9	37.9	37.9	38	14.6	2	6	315	0.00	30.394 
15:35	38.0	38.0	38.0	39	15.3	1	4	292	0.00	30.394 
15:40	38.2	38.2	38.2	38	14.9	2	4	338	0.00	30.394 
15:45	37.9	37.9	37.9	38	14.6	2	4	315	0.00	30.395 
15:50	38.0	38.0	38.0	39	15.3	2	5	248	0.00	30.395 
15:55	38.5	38.5	38.5	38	15.1	3	7	270	0.00	30.395 
16:00	38.6	38.6	38.6	36	14.0	2	5	248	0.00	30.400 
16:05	38.5	38.5	38.5	37	14.5	2	6	248	0.00	30.400 
16:10	38.0	38.0	38.0	38	14.7	1	4	248	0.00	30.400 
16:15	38.0	38.0	38.0	37	14.1	1	6	248	0.00	30.405 
16:20	38.0	38.0	38.0	39	15.3	2	5	248	0.00	30.405 
16:25	37.9	37.9	37.9	38	14.6	1	5	248	0.00	30.405 
16:30	37.9	37.9	37.9	39	15.2	1	6	248	0.00	30.402 
16:35	37.8	37.8	37.8	38	14.5	1	4	248	0.00	30.402 
16:40	37.8	37.8	37.8	38	14.5	1	4	248	0.00	30.402 
16:45	37.6	37.6	37.6	38	14.3	1	2	248	0.00	30.405 
16:50	37.3	37.3	37.3	39	14.6	1	2	292	0.00	30.405 
16:55	37.0	37.0	37.0	39	14.4	0	1	270	0.00	30.405 
17:00	36.8	36.8	36.8	39	14.2	0	2	270	0.00	30.407 
17:05	36.6	36.6	36.6	39	14.0	0	2	270	0.00	30.407 
17:10	36.5	36.5	36.5	39	13.9	0	2	292	0.00	30.407 
17:15	36.2	36.2	36.2	40	14.2	0	1	292	0.00	30.408 
17:20	36.0	36.0	36.0	41	14.6	0	1	292	0.00	30.408 
17:25	35.8	35.8	35.8	41	14.4	0	0	---	0.00	30.408 
17:30	35.5	35.5	35.5	41	14.2	0	1	315	0.00	30.412 
17:35	35.2	35.2	35.2	41	13.9	0	0	---	0.00	30.412 
17:40	34.9	34.9	34.9	43	14.7	0	0	---	0.00	30.412 
17:45	34.6	34.6	34.6	43	14.4	0	1	315	0.00	30.416 
17:50	34.1	34.1	34.1	44	14.5	0	0	---	0.00	30.416 
17:55	33.5	33.5	33.5	45	14.5	0	0	---	0.00	30.416 
18:00	32.9	32.9	32.9	46	14.4	0	0	---	0.00	30.419 
18:05	32.5	32.5	32.5	46	14.0	0	0	---	0.00	30.419 
18:10	32.1	32.1	32.1	48	14.6	0	0	---	0.00	30.419 
18:15	31.6	31.6	31.6	48	14.2	0	0	---	0.00	30.422 
18:20	31.2	31.2	31.2	51	15.2	0	0	---	0.00	30.422 
18:25	30.7	30.7	30.7	51	14.7	0	0	---	0.00	30.422 
18:30	30.3	30.3	30.3	51	14.4	0	0	---	0.00	30.429 
18:35	29.8	29.8	29.8	53	14.8	0	0	---	0.00	30.429 
18:40	29.5	29.5	29.5	54	14.9	0	0	---	0.00	30.429 
18:45	29.3	29.3	29.3	56	15.6	0	0	---	0.00	30.436 
18:50	29.0	29.0	29.0	56	15.3	0	0	---	0.00	30.436 
18:55	28.7	28.7	28.7	57	15.4	0	0	---	0.00	30.436 
19:00	28.4	28.4	28.4	58	15.5	0	0	---	0.00	30.437 
19:05	28.1	28.1	28.1	59	15.6	0	0	---	0.00	30.437 
19:10	27.9	27.9	27.9	62	16.6	0	0	---	0.00	30.437 
19:15	27.6	27.6	27.6	62	16.3	0	0	---	0.00	30.436 
19:20	27.5	27.5	27.5	63	16.6	0	0	---	0.00	30.436 
19:25	27.3	27.3	27.3	65	17.1	0	0	---	0.00	30.436 
19:30	27.0	27.0	27.0	65	16.8	0	0	---	0.00	30.438 
19:35	26.9	26.9	26.9	65	16.7	0	0	---	0.00	30.438 
19:40	26.7	26.7	26.7	66	16.9	0	0	---	0.00	30.438 
19:45	26.6	26.6	26.6	68	17.5	0	0	---	0.00	30.441 
19:50	26.3	26.3	26.3	67	16.9	0	0	---	0.00	30.441 
19:55	26.1	26.1	26.1	68	17.0	0	0	---	0.00	30.441 
20:00	26.0	26.0	26.0	68	16.9	0	0	---	0.00	30.440 
20:05	25.8	25.8	25.8	69	17.1	0	0	---	0.00	30.440 
20:10	25.7	25.7	25.7	69	17.0	0	0	---	0.00	30.440 
20:15	25.6	25.6	25.6	70	17.2	0	0	---	0.00	30.435 
20:20	25.4	25.4	25.4	70	17.0	0	0	---	0.00	30.435 
20:25	25.3	25.3	25.3	70	16.9	0	0	---	0.00	30.435 
20:30	25.3	25.3	25.3	70	16.9	0	0	---	0.00	30.433 
20:35	25.1	25.1	25.1	70	16.7	0	0	---	0.00	30.433 
20:40	25.1	25.1	25.1	70	16.7	0	0	---	0.00	30.433 
20:45	25.1	25.1	25.1	72	17.4	0	0	---	0.00	30.434 
20:50	25.0	25.0	25.0	71	16.9	0	0	---	0.00	30.434 
20:55	25.0	25.0	25.0	72	17.3	0	0	---	0.00	30.434 
21:00	25.0	25.0	25.0	72	17.3	0	0	---	0.00	30.435 
21:05	25.0	25.0	25.0	72	17.3	0	0	---	0.00	30.435 
21:10	25.0	25.0	25.0	72	17.3	0	0	---	0.00	30.435 
21:15	24.8	24.8	24.8	72	17.1	0	0	---	0.00	30.430 
21:20	24.8	24.8	24.8	71	16.8	0	0	---	0.00	30.430 
21:25	24.7	24.7	24.7	71	16.7	0	0	---	0.00	30.430 
21:30	24.7	24.7	24.7	72	17.0	0	0	---	0.00	30.430 
21:35	24.5	24.5	24.5	71	16.5	0	0	---	0.00	30.430 
21:40	24.5	24.5	24.5	72	16.8	0	0	---	0.00	30.430 
21:45	24.4	24.4	24.4	71	16.4	0	0	---	0.00	30.431 
21:50	24.4	24.4	24.4	71	16.4	0	0	---	0.00	30.431 
21:55	24.4	24.4	24.4	71	16.4	0	0	---	0.00	30.431 
22:00	24.2	24.2	24.2	71	16.2	0	0	---	0.00	30.431 
22:05	24.2	24.2	24.2	72	16.5	0	0	---	0.00	30.431 
22:10	24.2	24.2	24.2	72	16.5	0	0	---	0.00	30.431 
22:15	24.1	24.1	24.1	73	16.7	0	0	---	0.00	30.429 
22:20	24.1	24.1	24.1	74	17.0	0	0	---	0.00	30.429 
22:25	23.9	23.9	23.9	74	16.8	0	0	---	0.00	30.429 
22:30	23.9	23.9	23.9	73	16.5	0	0	---	0.00	30.430 
22:35	23.6	23.6	23.6	73	16.2	0	0	---	0.00	30.430 
22:40	23.5	23.5	23.5	74	16.5	0	0	---	0.00	30.430 
22:45	23.5	23.5	23.5	74	16.5	0	0	---	0.00	30.429 
22:50	23.3	23.3	23.3	74	16.3	0	0	---	0.00	30.429 
22:55	23.2	23.2	23.2	74	16.2	0	0	---	0.00	30.429 
23:00	23.2	23.2	23.2	74	16.2	0	0	---	0.00	30.425 
23:05	23.0	23.0	23.0	75	16.3	0	0	---	0.00	30.425 
23:10	23.0	23.0	23.0	75	16.3	0	0	---	0.00	30.425 
23:15	22.9	22.9	22.9	75	16.2	0	0	---	0.00	30.424 
23:20	22.9	22.9	22.9	76	16.5	0	0	---	0.00	30.424 
23:25	22.7	22.7	22.7	76	16.3	0	0	---	0.00	30.424 
23:30	22.5	22.5	22.5	76	16.1	0	0	---	0.00	30.426 
23:35	22.5	22.5	22.5	77	16.4	0	0	---	0.00	30.426 
23:40	22.4	22.4	22.4	77	16.3	0	0	---	0.00	30.426 
23:45	22.4	22.4	22.4	78	16.6	0	0	---	0.00	30.426 
23:50	22.2	22.2	22.2	78	16.4	0	0	---	0.00	30.426 
23:55	22.2	22.2	22.2	78	16.4	0	0	---	0.00	30.426 

CoCoRaHS
IN-AL-39
A2 Web Hosting
Creative Commons License
GoDaddy
Look for:

loaded 2017-12-12 07:27:09 • last modified 2010-11-18 10:43:29
Privacy PolicyDisclaimer
• wx.awcolley.com is powered by PmWiki v.2002016 •
• all content (unless otherwise noted) © 2017 A W Colley